createdAt,value
2019-05-26T00:04:25.785Z,75.21
2019-05-26T00:09:28.482Z,75.31
2019-05-26T00:14:31.183Z,75.27
2019-05-26T00:19:33.901Z,75.19
2019-05-26T00:24:36.609Z,75.22
2019-05-26T00:29:39.303Z,75.07
2019-05-26T00:34:42.023Z,75.24
2019-05-26T00:39:44.770Z,75.31
2019-05-26T00:44:47.452Z,75.30
2019-05-26T00:49:50.171Z,75.19
2019-05-26T00:54:52.873Z,75.35
2019-05-26T00:59:55.607Z,75.45
2019-05-26T01:04:58.540Z,75.37
2019-05-26T01:10:01.250Z,75.43
2019-05-26T01:15:04.682Z,75.42
2019-05-26T01:20:08.325Z,75.52
2019-05-26T01:25:11.327Z,75.58
2019-05-26T01:30:15.528Z,75.43
2019-05-26T01:35:18.227Z,75.25
2019-05-26T01:40:28.103Z,75.17
2019-05-26T01:45:30.791Z,75.16
2019-05-26T01:50:33.538Z,75.09
2019-05-26T01:55:36.257Z,75.10
2019-05-26T02:00:38.979Z,75.16
2019-05-26T02:05:41.703Z,74.90
2019-05-26T02:10:44.398Z,74.97
2019-05-26T02:15:47.094Z,75.13
2019-05-26T02:20:49.771Z,75.19
2019-05-26T02:25:52.477Z,75.20
2019-05-26T02:30:55.178Z,75.26
2019-05-26T02:35:57.882Z,75.40
2019-05-26T02:41:00.583Z,75.62
2019-05-26T02:46:03.389Z,75.77
2019-05-26T02:51:06.078Z,75.84
2019-05-26T02:56:08.775Z,75.89
2019-05-26T03:01:11.563Z,75.95
2019-05-26T03:06:16.173Z,75.97
2019-05-26T03:11:20.029Z,76.01
2019-05-26T03:16:22.761Z,76.03
2019-05-26T03:21:27.095Z,75.84
2019-05-26T03:26:30.151Z,75.82
2019-05-26T03:31:33.191Z,75.83
2019-05-26T03:36:36.235Z,75.76
2019-05-26T03:41:39.221Z,75.59
2019-05-26T03:46:42.163Z,75.35
2019-05-26T03:51:45.210Z,75.20
2019-05-26T03:56:48.240Z,74.93
2019-05-26T04:01:51.239Z,74.70
2019-05-26T04:06:54.267Z,74.34
2019-05-26T04:11:57.236Z,73.87
2019-05-26T04:16:59.917Z,73.94
2019-05-26T04:22:02.684Z,73.78
2019-05-26T04:27:05.388Z,73.48
2019-05-26T04:32:08.119Z,73.57
2019-05-26T04:37:10.937Z,73.31
2019-05-26T04:42:14.655Z,72.85
2019-05-26T04:47:17.413Z,72.55
2019-05-26T04:52:20.235Z,72.35
2019-05-26T04:57:23.095Z,71.82
2019-05-26T05:02:25.803Z,70.96
2019-05-26T05:07:28.924Z,70.27
2019-05-26T05:12:31.831Z,70.05
2019-05-26T05:17:34.552Z,70.14
2019-05-26T05:22:37.336Z,69.67
2019-05-26T05:27:40.137Z,69.53
2019-05-26T05:32:42.985Z,69.75
2019-05-26T05:37:45.727Z,69.58
2019-05-26T05:42:48.441Z,69.00
2019-05-26T05:47:51.146Z,68.84
2019-05-26T05:52:53.841Z,68.15
2019-05-26T05:57:56.560Z,66.71
2019-05-26T06:02:59.626Z,65.79
2019-05-26T06:08:02.369Z,65.43
2019-05-26T06:13:05.079Z,65.08
2019-05-26T06:18:07.813Z,65.56
2019-05-26T06:23:10.525Z,65.40
2019-05-26T06:28:13.244Z,64.85
2019-05-26T06:33:15.948Z,63.62
2019-05-26T06:38:19.491Z,63.23
2019-05-26T06:43:22.193Z,64.19
2019-05-26T06:48:26.914Z,63.82
2019-05-26T06:53:29.503Z,63.76
2019-05-26T06:58:32.296Z,62.90
2019-05-26T07:03:35.051Z,62.60
2019-05-26T07:08:37.770Z,62.12
2019-05-26T07:13:40.535Z,62.01
2019-05-26T07:18:43.338Z,62.13
2019-05-26T07:23:46.035Z,62.10
2019-05-26T07:28:48.808Z,61.64
2019-05-26T07:33:51.530Z,62.25
2019-05-26T07:38:54.236Z,62.71
2019-05-26T07:43:58.229Z,62.15
2019-05-26T07:49:01.009Z,62.57
2019-05-26T07:54:04.283Z,61.77
2019-05-26T07:59:07.048Z,60.54
2019-05-26T08:04:11.587Z,57.99
2019-05-26T08:09:15.541Z,58.34
2019-05-26T08:14:20.842Z,56.93
2019-05-26T08:19:24.127Z,57.29
2019-05-26T08:24:27.824Z,57.49
2019-05-26T08:29:31.358Z,58.63
2019-05-26T08:34:35.471Z,58.22
2019-05-26T08:39:38.908Z,58.78
2019-05-26T08:44:41.639Z,58.53
2019-05-26T08:49:45.025Z,57.80
2019-05-26T08:54:48.396Z,56.53
2019-05-26T08:59:51.532Z,56.30
2019-05-26T09:04:55.191Z,56.55
2019-05-26T09:09:58.564Z,57.00
2019-05-26T09:15:01.419Z,55.96
2019-05-26T09:20:05.947Z,56.56
2019-05-26T09:25:09.012Z,56.93
2019-05-26T09:30:11.929Z,55.91
2019-05-26T09:35:14.813Z,54.21
2019-05-26T09:40:18.511Z,53.71
2019-05-26T09:45:21.213Z,52.88
2019-05-26T09:50:26.046Z,52.45
2019-05-26T09:55:28.753Z,51.32
2019-05-26T10:00:31.659Z,49.86
2019-05-26T10:05:34.377Z,49.88
2019-05-26T10:10:37.071Z,50.26
2019-05-26T10:15:39.781Z,49.23
2019-05-26T10:20:42.579Z,49.65
2019-05-26T10:25:45.298Z,49.30
2019-05-26T10:30:48.049Z,49.07
2019-05-26T10:35:50.847Z,48.68
2019-05-26T10:40:53.571Z,49.30
2019-05-26T10:45:56.289Z,46.95
2019-05-26T10:50:59.097Z,45.74
2019-05-26T10:56:01.803Z,46.13
2019-05-26T11:01:04.526Z,47.93
2019-05-26T11:06:07.237Z,47.37
2019-05-26T11:11:09.960Z,44.82
2019-05-26T11:16:12.687Z,44.92
2019-05-26T11:21:15.385Z,45.73
2019-05-26T11:26:18.078Z,45.51
2019-05-26T11:31:20.777Z,45.32
2019-05-26T11:36:23.479Z,45.15
2019-05-26T11:41:26.330Z,45.32
2019-05-26T11:46:29.195Z,42.96
2019-05-26T11:51:31.894Z,44.25
2019-05-26T11:56:34.577Z,43.39
2019-05-26T12:01:37.266Z,44.12
2019-05-26T12:06:40.212Z,45.28
2019-05-26T12:11:43.183Z,44.30
2019-05-26T12:16:45.901Z,44.20
2019-05-26T12:21:48.623Z,44.10
2019-05-26T12:26:51.330Z,43.43
2019-05-26T12:31:54.031Z,44.24
2019-05-26T12:36:56.755Z,45.81
2019-05-26T12:41:59.552Z,45.59
2019-05-26T12:47:02.377Z,45.47
2019-05-26T12:52:05.219Z,44.41
2019-05-26T12:57:07.920Z,43.71
2019-05-26T13:02:10.649Z,44.57
2019-05-26T13:07:13.358Z,43.72
2019-05-26T13:12:16.114Z,43.49
2019-05-26T13:17:18.833Z,43.90
2019-05-26T13:22:21.557Z,44.82
2019-05-26T13:27:24.295Z,44.15
2019-05-26T13:32:27.088Z,44.03
2019-05-26T13:37:33.537Z,43.48
2019-05-26T13:42:36.263Z,44.81
2019-05-26T13:47:38.962Z,44.03
2019-05-26T13:52:41.662Z,43.70
2019-05-26T13:57:44.415Z,44.49
2019-05-26T14:02:47.145Z,45.03
2019-05-26T14:07:49.883Z,43.15
2019-05-26T14:12:52.580Z,43.58
2019-05-26T14:17:56.879Z,44.65
2019-05-26T14:22:59.651Z,45.38
2019-05-26T14:28:02.395Z,45.53
2019-05-26T14:33:05.351Z,44.93
2019-05-26T14:38:08.037Z,45.76
2019-05-26T14:43:11.024Z,46.15
2019-05-26T14:48:13.768Z,46.43
2019-05-26T14:53:16.468Z,45.64
2019-05-26T14:58:19.395Z,45.52
2019-05-26T15:03:22.349Z,46.01
2019-05-26T15:08:25.078Z,46.39
2019-05-26T15:13:28.097Z,46.76
2019-05-26T15:18:30.948Z,47.21
2019-05-26T15:23:33.883Z,46.11
2019-05-26T15:28:36.753Z,46.63
2019-05-26T15:33:39.511Z,47.70
2019-05-26T15:38:43.454Z,47.85
2019-05-26T15:43:46.415Z,48.22
2019-05-26T15:48:49.163Z,48.77
2019-05-26T15:53:51.888Z,49.18
2019-05-26T15:58:54.630Z,49.61
2019-05-26T16:03:57.493Z,49.71
2019-05-26T16:09:00.447Z,48.77
2019-05-26T16:14:03.288Z,48.62
2019-05-26T16:19:06.139Z,49.10
2019-05-26T16:24:08.892Z,49.83
2019-05-26T16:29:11.634Z,50.58
2019-05-26T16:34:14.360Z,51.29
2019-05-26T16:39:17.101Z,51.86
2019-05-26T16:44:19.823Z,52.15
2019-05-26T16:49:22.550Z,52.41
2019-05-26T16:54:25.303Z,52.65
2019-05-26T16:59:28.034Z,53.31
2019-05-26T17:04:30.841Z,53.73
2019-05-26T17:09:34.704Z,54.23
2019-05-26T17:14:37.456Z,54.59
2019-05-26T17:19:40.285Z,54.30
2019-05-26T17:24:43.117Z,54.43
2019-05-26T17:29:45.883Z,54.08
2019-05-26T17:34:48.620Z,54.31
2019-05-26T17:39:51.396Z,54.19
2019-05-26T17:44:54.303Z,54.00
2019-05-26T17:49:57.365Z,54.59
2019-05-26T17:55:00.369Z,54.39
2019-05-26T18:00:04.812Z,54.54
2019-05-26T18:05:08.348Z,54.61
2019-05-26T18:10:12.592Z,54.97
2019-05-26T18:15:16.424Z,54.96
2019-05-26T18:20:20.454Z,54.83
2019-05-26T18:25:23.289Z,55.17
2019-05-26T18:30:26.177Z,55.33
2019-05-26T18:35:30.033Z,55.23
2019-05-26T18:40:33.394Z,55.27
2019-05-26T18:45:37.221Z,55.53
2019-05-26T18:50:41.385Z,55.33
2019-05-26T18:55:44.666Z,55.63
2019-05-26T19:00:47.656Z,55.57
2019-05-26T19:05:50.951Z,56.17
2019-05-26T19:10:54.118Z,56.33
2019-05-26T19:15:57.030Z,56.55
2019-05-26T19:21:00.317Z,56.50
2019-05-26T19:26:03.569Z,56.94
2019-05-26T19:31:06.461Z,57.31
2019-05-26T19:36:09.989Z,57.28
2019-05-26T19:41:13.596Z,57.63
2019-05-26T19:46:17.862Z,58.15
2019-05-26T19:51:21.517Z,58.49
2019-05-26T19:56:25.111Z,58.84
2019-05-26T20:01:30.178Z,59.35
2019-05-26T20:06:33.970Z,59.46
2019-05-26T20:11:37.213Z,58.81
2019-05-26T20:16:40.408Z,58.66
2019-05-26T20:21:43.561Z,58.36
2019-05-26T20:26:47.313Z,58.11
2019-05-26T20:31:50.291Z,58.22
2019-05-26T20:36:53.082Z,58.05
2019-05-26T20:41:55.913Z,58.14
2019-05-26T20:46:58.811Z,58.01
2019-05-26T20:52:01.575Z,58.05
2019-05-26T20:57:04.318Z,58.57
2019-05-26T21:02:07.176Z,58.87
2019-05-26T21:07:09.890Z,59.32
2019-05-26T21:12:12.619Z,59.52
2019-05-26T21:17:15.405Z,59.38
2019-05-26T21:22:18.162Z,59.43
2019-05-26T21:27:20.990Z,59.46
2019-05-26T21:32:23.746Z,59.79
2019-05-26T21:37:26.501Z,60.05
2019-05-26T21:42:29.256Z,60.38
2019-05-26T21:47:32.098Z,60.76
2019-05-26T21:52:34.864Z,61.06
2019-05-26T21:57:37.597Z,61.15
2019-05-26T22:02:40.464Z,61.31
2019-05-26T22:07:43.195Z,61.56
2019-05-26T22:12:45.923Z,61.72
2019-05-26T22:17:48.675Z,61.50
2019-05-26T22:22:51.701Z,61.64
2019-05-26T22:27:54.509Z,62.12
2019-05-26T22:32:57.413Z,62.44
2019-05-26T22:38:00.226Z,62.39
2019-05-26T22:43:02.972Z,62.58
2019-05-26T22:48:05.950Z,62.71
2019-05-26T22:53:08.749Z,62.14
2019-05-26T22:58:11.528Z,62.04
2019-05-26T23:03:14.385Z,61.89
2019-05-26T23:08:17.243Z,61.62
2019-05-26T23:13:19.992Z,61.44
2019-05-26T23:18:22.770Z,61.09
2019-05-26T23:23:25.570Z,60.43
2019-05-26T23:28:28.363Z,60.40
2019-05-26T23:33:31.371Z,60.46
2019-05-26T23:38:34.181Z,60.67
2019-05-26T23:43:37.645Z,60.67
2019-05-26T23:48:40.463Z,60.76
2019-05-26T23:53:43.213Z,60.98
2019-05-26T23:58:45.979Z,61.09
